createdAt,value
2022-09-27T00:03:14.391Z,10.92
2022-09-27T00:04:45.153Z,10.90
2022-09-27T00:06:54.791Z,10.87
2022-09-27T00:09:26.270Z,10.84
2022-09-27T00:11:32.589Z,10.82
2022-09-27T00:17:29.638Z,10.79
2022-09-27T00:19:28.865Z,10.78
2022-09-27T00:23:19.565Z,10.76
2022-09-27T00:25:47.250Z,10.75
2022-09-27T00:29:15.316Z,10.76
2022-09-27T00:31:15.223Z,10.75
2022-09-27T00:34:56.549Z,10.75
2022-09-27T00:40:36.014Z,10.69
2022-09-27T00:43:35.081Z,10.71
2022-09-27T00:45:53.753Z,10.69
2022-09-27T00:51:27.194Z,10.69
2022-09-27T00:55:15.763Z,10.67
2022-09-27T01:02:20.916Z,10.63
2022-09-27T01:10:53.440Z,10.60
2022-09-27T01:13:13.902Z,10.60
2022-09-27T01:17:03.627Z,10.59
2022-09-27T01:31:05.946Z,10.53
2022-09-27T01:33:37.081Z,10.53
2022-09-27T01:36:29.660Z,10.51
2022-09-27T01:37:59.644Z,10.49
2022-09-27T01:40:01.579Z,10.48
2022-09-27T01:45:45.613Z,10.42
2022-09-27T01:53:07.569Z,10.41
2022-09-27T01:55:36.308Z,10.40
2022-09-27T01:59:24.544Z,10.38
2022-09-27T02:01:14.377Z,10.40
2022-09-27T02:04:51.461Z,10.41
2022-09-27T02:07:12.195Z,10.41
2022-09-27T02:14:56.342Z,10.40
2022-09-27T02:16:28.184Z,10.40
2022-09-27T02:20:15.495Z,10.37
2022-09-27T02:22:17.012Z,10.35
2022-09-27T02:24:16.159Z,10.34
2022-09-27T02:28:43.458Z,10.31
2022-09-27T02:31:12.668Z,10.30
2022-09-27T02:32:46.610Z,10.28
2022-09-27T02:34:20.589Z,10.28
2022-09-27T02:38:05.683Z,10.23
2022-09-27T02:39:36.503Z,10.22
2022-09-27T02:45:25.807Z,10.17
2022-09-27T02:50:02.022Z,10.13
2022-09-27T02:52:03.758Z,10.13
2022-09-27T02:53:33.700Z,10.13
2022-09-27T02:57:19.549Z,10.07
2022-09-27T02:58:49.459Z,10.07
2022-09-27T03:05:25.480Z,10.01
2022-09-27T03:10:02.777Z,9.94
2022-09-27T03:14:24.181Z,9.91
2022-09-27T03:16:10.899Z,9.89
2022-09-27T03:18:39.272Z,9.86
2022-09-27T03:20:35.642Z,9.86
2022-09-27T03:25:35.331Z,9.83
2022-09-27T03:27:55.403Z,9.82
2022-09-27T03:30:54.854Z,9.80
2022-09-27T03:32:43.997Z,9.79
2022-09-27T03:41:03.864Z,9.73
2022-09-27T03:42:35.368Z,9.73
2022-09-27T03:45:08.339Z,9.69
2022-09-27T03:46:37.306Z,9.68
2022-09-27T03:50:41.098Z,9.65
2022-09-27T03:52:41.058Z,9.62
2022-09-27T03:54:16.743Z,9.61
2022-09-27T03:57:09.358Z,9.56
2022-09-27T03:59:26.942Z,9.56
2022-09-27T04:03:28.138Z,9.54
2022-09-27T04:05:47.707Z,9.51
2022-09-27T04:07:21.468Z,9.51
2022-09-27T04:10:08.166Z,9.47
2022-09-27T04:11:58.180Z,9.46
2022-09-27T04:15:20.233Z,9.44
2022-09-27T04:16:53.754Z,9.41
2022-09-27T04:19:21.291Z,9.40
2022-09-27T04:22:09.283Z,9.39
2022-09-27T04:26:04.859Z,9.37
2022-09-27T04:27:40.113Z,9.37
2022-09-27T04:29:13.965Z,9.34
2022-09-27T04:32:02.059Z,9.36
2022-09-27T04:39:59.007Z,9.32
2022-09-27T04:42:21.436Z,9.32
2022-09-27T04:45:35.493Z,9.31
2022-09-27T04:49:24.861Z,9.29
2022-09-27T04:50:54.851Z,9.29
2022-09-27T04:53:23.832Z,9.31
2022-09-27T04:55:00.089Z,9.29
2022-09-27T04:58:08.803Z,9.29
2022-09-27T04:59:58.015Z,9.29
2022-09-27T05:04:50.812Z,9.28
2022-09-27T05:06:38.034Z,9.28
2022-09-27T05:09:05.433Z,9.28
2022-09-27T05:18:10.053Z,9.26
2022-09-27T05:20:39.613Z,9.29
2022-09-27T05:22:47.145Z,9.29
2022-09-27T05:27:39.244Z,9.29
2022-09-27T05:32:41.710Z,9.29
2022-09-27T05:35:45.628Z,9.28
2022-09-27T05:37:14.155Z,9.29
2022-09-27T05:41:41.068Z,9.28
2022-09-27T05:45:27.726Z,9.28
2022-09-27T05:50:49.395Z,9.25
2022-09-27T05:54:05.440Z,9.25
2022-09-27T06:01:44.546Z,9.29
2022-09-27T06:05:15.895Z,9.31
2022-09-27T06:11:33.713Z,9.36
2022-09-27T06:14:17.983Z,9.37
2022-09-27T06:17:27.508Z,9.37
2022-09-27T06:19:02.642Z,9.34
2022-09-27T06:20:52.040Z,9.34
2022-09-27T06:22:43.576Z,9.32
2022-09-27T06:24:29.821Z,9.32
2022-09-27T06:26:03.910Z,9.32
2022-09-27T06:29:49.163Z,9.31
2022-09-27T06:31:50.528Z,9.28
2022-09-27T06:33:50.706Z,9.28
2022-09-27T06:35:54.787Z,9.28
2022-09-27T06:38:07.052Z,9.26
2022-09-27T06:40:44.483Z,9.28
2022-09-27T06:42:16.316Z,9.29
2022-09-27T06:46:14.399Z,9.32
2022-09-27T06:49:43.991Z,9.36
2022-09-27T06:53:57.205Z,9.37
2022-09-27T06:58:09.641Z,9.37
2022-09-27T07:01:41.292Z,9.41
2022-09-27T07:05:16.434Z,9.46
2022-09-27T07:09:47.040Z,9.54
2022-09-27T07:12:49.267Z,9.55
2022-09-27T07:14:18.766Z,9.55
2022-09-27T07:16:22.899Z,9.54
2022-09-27T07:21:04.331Z,9.55
2022-09-27T07:23:13.300Z,9.55
2022-09-27T07:27:30.168Z,9.59
2022-09-27T07:34:53.799Z,9.66
2022-09-27T07:36:47.734Z,9.66
2022-09-27T07:38:51.666Z,9.66
2022-09-27T07:42:12.596Z,9.69
2022-09-27T07:45:09.378Z,9.74
2022-09-27T07:53:33.753Z,9.89
2022-09-27T07:55:22.176Z,9.94
2022-09-27T07:58:14.908Z,9.97
2022-09-27T08:00:03.506Z,9.99
2022-09-27T08:03:36.674Z,10.10
2022-09-27T08:05:53.186Z,10.15
2022-09-27T08:07:56.633Z,10.16
2022-09-27T08:10:14.905Z,10.19
2022-09-27T08:11:46.791Z,10.20
2022-09-27T08:17:11.471Z,10.40
2022-09-27T08:21:58.768Z,10.57
2022-09-27T08:26:06.865Z,10.63
2022-09-27T08:30:30.949Z,10.72
2022-09-27T08:32:23.032Z,10.72
2022-09-27T08:34:11.286Z,10.76
2022-09-27T08:37:00.430Z,10.74
2022-09-27T08:38:12.172Z,10.74
2022-09-27T08:40:29.915Z,10.79
2022-09-27T08:43:25.066Z,10.94
2022-09-27T08:46:18.967Z,10.96
2022-09-27T08:48:08.816Z,11.02
2022-09-27T08:49:37.974Z,11.10
2022-09-27T08:51:12.197Z,11.14
2022-09-27T08:54:24.849Z,11.18
2022-09-27T08:56:23.318Z,11.18
2022-09-27T08:57:52.964Z,11.15
2022-09-27T09:00:02.214Z,11.14
2022-09-27T09:02:03.828Z,11.19
2022-09-27T09:04:13.349Z,11.23
2022-09-27T09:05:44.100Z,11.18
2022-09-27T09:08:50.117Z,11.17
2022-09-27T09:12:21.200Z,11.18
2022-09-27T09:14:14.607Z,11.23
2022-09-27T09:16:17.878Z,11.29
2022-09-27T09:17:46.711Z,11.33
2022-09-27T09:23:02.217Z,11.35
2022-09-27T09:27:14.445Z,11.41
2022-09-27T09:28:44.700Z,11.43
2022-09-27T09:30:13.684Z,11.43
2022-09-27T09:31:45.142Z,11.44
2022-09-27T09:34:03.985Z,11.47
2022-09-27T09:36:06.390Z,11.48
2022-09-27T09:38:28.189Z,11.50
2022-09-27T09:40:34.501Z,11.48
2022-09-27T09:42:03.491Z,11.48
2022-09-27T09:45:30.328Z,11.57
2022-09-27T09:46:59.301Z,11.57
2022-09-27T09:49:04.420Z,11.65
2022-09-27T09:50:33.231Z,11.73
2022-09-27T09:53:13.442Z,11.90
2022-09-27T09:54:44.639Z,11.88
2022-09-27T09:57:14.643Z,11.90
2022-09-27T10:00:06.357Z,11.97
2022-09-27T10:02:54.197Z,12.02
2022-09-27T10:06:40.969Z,12.13
2022-09-27T10:10:32.036Z,12.24
2022-09-27T10:13:28.010Z,12.32
2022-09-27T10:15:02.452Z,12.28
2022-09-27T10:16:57.082Z,12.22
2022-09-27T10:18:29.092Z,12.15
2022-09-27T10:21:37.647Z,11.95
2022-09-27T10:23:06.214Z,11.88
2022-09-27T10:26:28.686Z,11.83
2022-09-27T10:28:50.378Z,11.73
2022-09-27T10:30:20.008Z,11.68
2022-09-27T10:32:19.378Z,11.60
2022-09-27T10:34:12.279Z,11.55
2022-09-27T10:37:32.532Z,11.41
2022-09-27T10:40:50.016Z,11.22
2022-09-27T10:42:51.886Z,11.08
2022-09-27T10:45:10.687Z,10.99
2022-09-27T10:48:25.885Z,10.90
2022-09-27T10:49:54.594Z,10.89
2022-09-27T10:52:37.122Z,10.87
2022-09-27T10:55:09.765Z,10.87
2022-09-27T10:58:45.019Z,10.87
2022-09-27T11:00:16.467Z,10.86
2022-09-27T11:02:05.140Z,10.82
2022-09-27T11:03:14.247Z,10.81
2022-09-27T11:04:49.722Z,10.82
2022-09-27T11:06:45.525Z,10.86
2022-09-27T11:12:45.241Z,11.17
2022-09-27T11:14:18.705Z,11.18
2022-09-27T11:16:15.354Z,11.23
2022-09-27T11:18:17.269Z,11.33
2022-09-27T11:19:48.791Z,11.57
2022-09-27T11:21:49.249Z,11.88
2022-09-27T11:23:18.525Z,12.17
2022-09-27T11:25:52.253Z,12.28
2022-09-27T11:31:10.999Z,12.15
2022-09-27T11:34:16.487Z,12.24
2022-09-27T11:37:49.364Z,12.25
2022-09-27T11:40:49.433Z,12.24
2022-09-27T11:43:43.434Z,12.28
2022-09-27T11:46:15.275Z,12.31
2022-09-27T11:47:44.862Z,12.42
2022-09-27T11:49:44.349Z,12.46
2022-09-27T11:51:15.670Z,12.43
2022-09-27T11:52:44.177Z,12.45
2022-09-27T11:54:38.796Z,12.49
2022-09-27T11:56:09.390Z,12.43
2022-09-27T11:57:45.978Z,12.36
2022-09-27T12:03:12.025Z,12.17
2022-09-27T12:07:14.621Z,12.10
2022-09-27T12:08:43.691Z,12.10
2022-09-27T12:13:39.578Z,12.13
2022-09-27T12:15:08.830Z,12.15
2022-09-27T12:16:38.097Z,12.13
2022-09-27T12:18:51.278Z,12.10
2022-09-27T12:20:19.488Z,12.06
2022-09-27T12:21:53.151Z,12.04
2022-09-27T12:23:38.149Z,12.04
2022-09-27T12:25:28.227Z,12.04
2022-09-27T12:27:00.078Z,11.91
2022-09-27T12:28:47.964Z,11.81
2022-09-27T12:30:39.832Z,11.69
2022-09-27T12:32:13.146Z,11.55
2022-09-27T12:35:17.869Z,11.44
2022-09-27T12:37:06.114Z,11.43
2022-09-27T12:39:13.306Z,11.45
2022-09-27T12:41:10.834Z,11.51
2022-09-27T12:42:43.909Z,11.52
2022-09-27T12:44:15.638Z,11.55
2022-09-27T12:46:22.134Z,11.60
2022-09-27T12:48:22.649Z,11.63
2022-09-27T12:52:59.224Z,11.84
2022-09-27T12:54:47.608Z,11.95
2022-09-27T12:56:18.316Z,12.00
2022-09-27T12:58:37.453Z,12.07
2022-09-27T13:00:05.879Z,12.15
2022-09-27T13:01:36.277Z,12.25
2022-09-27T13:03:41.344Z,12.36
2022-09-27T13:06:18.416Z,12.46
2022-09-27T13:07:49.967Z,12.49
2022-09-27T13:09:18.356Z,12.50
2022-09-27T13:11:12.332Z,12.55
2022-09-27T13:12:39.803Z,12.55
2022-09-27T13:14:09.847Z,12.55
2022-09-27T13:20:47.743Z,12.64
2022-09-27T13:23:58.419Z,12.46
2022-09-27T13:27:39.763Z,12.37
2022-09-27T13:29:07.454Z,12.32
2022-09-27T13:30:37.194Z,12.31
2022-09-27T13:33:09.879Z,12.28
2022-09-27T13:37:28.181Z,12.20
2022-09-27T13:40:58.906Z,12.09
2022-09-27T13:42:30.724Z,12.09
2022-09-27T13:50:33.947Z,12.13
2022-09-27T13:52:03.363Z,12.18
2022-09-27T13:54:10.059Z,12.21
2022-09-27T14:00:44.245Z,12.10
2022-09-27T14:03:08.878Z,12.10
2022-09-27T14:05:42.649Z,12.07
2022-09-27T14:07:11.149Z,12.07
2022-09-27T14:08:41.143Z,12.09
2022-09-27T14:13:07.178Z,12.07
2022-09-27T14:18:22.295Z,12.04
2022-09-27T14:21:14.347Z,12.06
2022-09-27T14:23:17.690Z,12.07
2022-09-27T14:31:26.812Z,12.28
2022-09-27T14:34:19.111Z,12.35
2022-09-27T14:36:39.146Z,12.40
2022-09-27T14:38:53.319Z,12.42
2022-09-27T14:40:26.162Z,12.40
2022-09-27T14:43:31.908Z,12.35
2022-09-27T14:46:37.105Z,12.21
2022-09-27T14:50:06.484Z,12.12
2022-09-27T14:53:16.395Z,12.10
2022-09-27T14:57:39.394Z,12.13
2022-09-27T14:59:57.054Z,12.10
2022-09-27T15:08:54.196Z,12.12
2022-09-27T15:10:39.987Z,12.07
2022-09-27T15:14:28.931Z,12.02
2022-09-27T15:16:34.699Z,11.97
2022-09-27T15:19:54.307Z,11.84
2022-09-27T15:21:33.374Z,11.83
2022-09-27T15:24:02.093Z,11.84
2022-09-27T15:27:12.391Z,11.73
2022-09-27T15:30:50.720Z,11.70
2022-09-27T15:32:24.845Z,11.66
2022-09-27T15:38:33.870Z,11.65
2022-09-27T15:48:59.233Z,11.69
2022-09-27T15:50:27.116Z,11.68
2022-09-27T15:51:57.437Z,11.68
2022-09-27T15:53:27.369Z,11.60
2022-09-27T15:55:16.005Z,11.59
2022-09-27T15:56:44.933Z,11.59
2022-09-27T16:01:32.825Z,11.51
2022-09-27T16:04:26.784Z,11.47
2022-09-27T16:08:26.673Z,11.43
2022-09-27T16:15:17.050Z,11.43
2022-09-27T16:18:49.881Z,11.41
2022-09-27T16:22:01.317Z,11.40
2022-09-27T16:25:41.028Z,11.36
2022-09-27T16:28:16.111Z,11.35
2022-09-27T16:30:39.540Z,11.36
2022-09-27T16:32:11.256Z,11.35
2022-09-27T16:36:49.822Z,11.32
2022-09-27T16:39:43.995Z,11.29
2022-09-27T16:42:15.443Z,11.23
2022-09-27T16:46:54.673Z,11.15
2022-09-27T16:48:24.523Z,11.14
2022-09-27T16:51:21.841Z,11.11
2022-09-27T16:56:21.604Z,11.05
2022-09-27T17:00:23.585Z,11.00
2022-09-27T17:11:38.523Z,10.82
2022-09-27T17:13:45.248Z,10.81
2022-09-27T17:15:39.309Z,10.79
2022-09-27T17:19:17.415Z,10.71
2022-09-27T17:21:50.219Z,10.69
2022-09-27T17:23:47.366Z,10.68
2022-09-27T17:25:19.299Z,10.67
2022-09-27T17:31:18.932Z,10.57
2022-09-27T17:34:40.558Z,10.53
2022-09-27T17:36:38.382Z,10.49
2022-09-27T17:38:09.056Z,10.48
2022-09-27T17:40:36.249Z,10.41
2022-09-27T17:42:08.022Z,10.41
2022-09-27T17:43:40.153Z,10.40
2022-09-27T17:45:08.725Z,10.38
2022-09-27T17:48:00.626Z,10.37
2022-09-27T17:50:29.778Z,10.33
2022-09-27T17:52:30.024Z,10.33
2022-09-27T17:54:10.153Z,10.31
2022-09-27T17:59:08.542Z,10.30
2022-09-27T18:01:00.999Z,10.28
2022-09-27T18:14:56.317Z,10.15
2022-09-27T18:16:55.242Z,10.12
2022-09-27T18:21:03.215Z,10.09
2022-09-27T18:23:32.278Z,10.07
2022-09-27T18:27:10.615Z,10.07
2022-09-27T18:29:08.484Z,10.04
2022-09-27T18:31:07.493Z,10.04
2022-09-27T18:32:38.311Z,10.02
2022-09-27T18:35:04.219Z,9.99
2022-09-27T18:38:02.924Z,9.98
2022-09-27T18:40:44.343Z,9.98
2022-09-27T18:43:24.590Z,9.97
2022-09-27T18:46:43.536Z,9.97
2022-09-27T18:53:02.884Z,9.92
2022-09-27T18:57:50.940Z,9.87
2022-09-27T18:59:20.327Z,9.86
2022-09-27T19:03:09.130Z,9.87
2022-09-27T19:05:38.887Z,9.86
2022-09-27T19:09:49.402Z,9.83
2022-09-27T19:11:18.305Z,9.86
2022-09-27T19:14:16.406Z,9.84
2022-09-27T19:16:13.287Z,9.86
2022-09-27T19:18:02.299Z,9.89
2022-09-27T19:23:29.601Z,9.91
2022-09-27T19:25:47.251Z,9.91
2022-09-27T19:30:35.576Z,9.86
2022-09-27T19:33:29.352Z,9.86
2022-09-27T19:35:01.147Z,9.87
2022-09-27T19:37:04.755Z,9.84
2022-09-27T19:38:29.965Z,9.87
2022-09-27T19:41:13.386Z,9.86
2022-09-27T19:43:31.978Z,9.89
2022-09-27T19:45:28.211Z,9.86
2022-09-27T19:48:44.746Z,9.87
2022-09-27T19:50:14.666Z,9.87
2022-09-27T19:51:43.566Z,9.86
2022-09-27T19:53:41.496Z,9.86
2022-09-27T19:58:49.812Z,9.87
2022-09-27T20:00:40.438Z,9.87
2022-09-27T20:04:37.572Z,9.86
2022-09-27T20:07:48.213Z,9.87
2022-09-27T20:09:37.220Z,9.84
2022-09-27T20:14:10.414Z,9.86
2022-09-27T20:17:27.078Z,9.86
2022-09-27T20:19:53.287Z,9.84
2022-09-27T20:22:12.369Z,9.86
2022-09-27T20:29:06.400Z,9.82
2022-09-27T20:31:36.175Z,9.82
2022-09-27T20:33:34.968Z,9.82
2022-09-27T20:38:55.241Z,9.79
2022-09-27T20:41:31.556Z,9.77
2022-09-27T20:50:12.956Z,9.74
2022-09-27T20:53:44.112Z,9.74
2022-09-27T20:58:28.648Z,9.69
2022-09-27T21:02:22.574Z,9.72
2022-09-27T21:03:53.371Z,9.72
2022-09-27T21:08:20.457Z,9.69
2022-09-27T21:13:55.094Z,9.68
2022-09-27T21:20:12.676Z,9.62
2022-09-27T21:27:02.005Z,9.54
2022-09-27T21:30:20.024Z,9.47
2022-09-27T21:34:46.848Z,9.46
2022-09-27T21:37:47.567Z,9.44
2022-09-27T21:39:14.426Z,9.41
2022-09-27T21:41:46.909Z,9.44
2022-09-27T21:49:06.606Z,9.46
2022-09-27T21:53:23.717Z,9.47
2022-09-27T21:54:54.582Z,9.47
2022-09-27T21:57:22.346Z,9.47
2022-09-27T21:59:47.105Z,9.48
2022-09-27T22:02:05.891Z,9.48
2022-09-27T22:05:04.046Z,9.47
2022-09-27T22:09:03.523Z,9.48
2022-09-27T22:13:18.639Z,9.47
2022-09-27T22:15:48.524Z,9.47
2022-09-27T22:17:51.671Z,9.48
2022-09-27T22:19:50.551Z,9.46
2022-09-27T22:24:10.353Z,9.44
2022-09-27T22:26:59.955Z,9.43
2022-09-27T22:29:26.606Z,9.43
2022-09-27T22:31:54.697Z,9.44
2022-09-27T22:38:12.104Z,9.44
2022-09-27T22:44:42.506Z,9.43
2022-09-27T22:46:12.745Z,9.43
2022-09-27T22:47:41.752Z,9.44
2022-09-27T22:49:39.759Z,9.43
2022-09-27T22:51:38.635Z,9.43
2022-09-27T22:55:06.593Z,9.41
2022-09-27T22:58:04.009Z,9.40
2022-09-27T23:00:32.903Z,9.43
2022-09-27T23:05:28.438Z,9.43
2022-09-27T23:08:17.285Z,9.43
2022-09-27T23:12:58.320Z,9.41
2022-09-27T23:15:46.935Z,9.41
2022-09-27T23:18:04.581Z,9.39
2022-09-27T23:23:12.223Z,9.39
2022-09-27T23:25:59.864Z,9.37
2022-09-27T23:28:27.580Z,9.37
2022-09-27T23:30:58.761Z,9.36
2022-09-27T23:38:31.616Z,9.32
2022-09-27T23:44:08.039Z,9.31
2022-09-27T23:47:38.081Z,9.28
2022-09-27T23:52:26.589Z,9.26
2022-09-27T23:59:58.287Z,9.26
